sensor_id;sensor_type;location;lat;lon;timestamp;pressure;altitude;pressure_sealevel;temperature;humidity
7966;BME280;4028;43.272;26.932;2023-01-28T00:02:14;98494.59;;;1.95;100.00
7966;BME280;4028;43.272;26.932;2023-01-28T00:04:40;98500.00;;;1.92;100.00
7966;BME280;4028;43.272;26.932;2023-01-28T00:07:05;98480.91;;;1.79;100.00
7966;BME280;4028;43.272;26.932;2023-01-28T00:09:31;98503.03;;;1.86;100.00
7966;BME280;4028;43.272;26.932;2023-01-28T00:11:56;98505.53;;;1.88;100.00
7966;BME280;4028;43.272;26.932;2023-01-28T00:14:23;98506.28;;;1.90;100.00
7966;BME280;4028;43.272;26.932;2023-01-28T00:16:48;98499.28;;;1.90;100.00
7966;BME280;4028;43.272;26.932;2023-01-28T00:19:14;98507.50;;;1.84;100.00
7966;BME280;4028;43.272;26.932;2023-01-28T00:21:39;98513.16;;;1.91;100.00
7966;BME280;4028;43.272;26.932;2023-01-28T00:24:05;98521.06;;;1.89;100.00
7966;BME280;4028;43.272;26.932;2023-01-28T00:26:33;98516.81;;;1.88;100.00
7966;BME280;4028;43.272;26.932;2023-01-28T00:28:59;98523.78;;;1.88;100.00
7966;BME280;4028;43.272;26.932;2023-01-28T00:31:25;98527.34;;;1.87;100.00
7966;BME280;4028;43.272;26.932;2023-01-28T00:33:53;98514.09;;;1.77;100.00
7966;BME280;4028;43.272;26.932;2023-01-28T00:36:20;98534.13;;;2.02;100.00
7966;BME280;4028;43.272;26.932;2023-01-28T00:38:54;98532.34;;;2.02;100.00
7966;BME280;4028;43.272;26.932;2023-01-28T00:41:22;98539.34;;;2.02;100.00
7966;BME280;4028;43.272;26.932;2023-01-28T00:43:48;98530.78;;;1.87;100.00
7966;BME280;4028;43.272;26.932;2023-01-28T00:46:14;98540.81;;;1.93;100.00
7966;BME280;4028;43.272;26.932;2023-01-28T00:48:40;98547.06;;;2.03;100.00
7966;BME280;4028;43.272;26.932;2023-01-28T00:51:08;98540.81;;;2.06;100.00
7966;BME280;4028;43.272;26.932;2023-01-28T00:53:34;98538.63;;;2.00;100.00
7966;BME280;4028;43.272;26.932;2023-01-28T00:56:01;98536.03;;;2.00;100.00
7966;BME280;4028;43.272;26.932;2023-01-28T00:58:27;98540.38;;;1.99;100.00
7966;BME280;4028;43.272;26.932;2023-01-28T01:00:52;98543.22;;;1.96;100.00
7966;BME280;4028;43.272;26.932;2023-01-28T01:03:18;98527.97;;;1.90;100.00
7966;BME280;4028;43.272;26.932;2023-01-28T01:05:44;98550.09;;;1.97;100.00
7966;BME280;4028;43.272;26.932;2023-01-28T01:08:10;98536.13;;;1.86;100.00
7966;BME280;4028;43.272;26.932;2023-01-28T01:10:37;98547.16;;;1.89;100.00
7966;BME280;4028;43.272;26.932;2023-01-28T01:13:04;98554.28;;;1.87;100.00
7966;BME280;4028;43.272;26.932;2023-01-28T01:15:30;98546.22;;;1.77;100.00
7966;BME280;4028;43.272;26.932;2023-01-28T01:17:56;98542.78;;;1.77;100.00
7966;BME280;4028;43.272;26.932;2023-01-28T01:20:26;98554.69;;;1.81;100.00
7966;BME280;4028;43.272;26.932;2023-01-28T01:22:52;98563.47;;;1.80;100.00
7966;BME280;4028;43.272;26.932;2023-01-28T01:25:18;98546.75;;;1.70;100.00
7966;BME280;4028;43.272;26.932;2023-01-28T01:27:44;98565.84;;;1.83;100.00
7966;BME280;4028;43.272;26.932;2023-01-28T01:30:12;98563.47;;;1.80;100.00
7966;BME280;4028;43.272;26.932;2023-01-28T01:32:37;98570.41;;;1.67;100.00
7966;BME280;4028;43.272;26.932;2023-01-28T01:35:05;98578.66;;;1.73;100.00
7966;BME280;4028;43.272;26.932;2023-01-28T01:37:31;98581.78;;;1.66;100.00
7966;BME280;4028;43.272;26.932;2023-01-28T01:39:57;98582.31;;;1.71;100.00
7966;BME280;4028;43.272;26.932;2023-01-28T01:42:23;98577.81;;;1.73;100.00
7966;BME280;4028;43.272;26.932;2023-01-28T01:45:00;98591.69;;;1.73;100.00
7966;BME280;4028;43.272;26.932;2023-01-28T01:50:03;98586.41;;;1.75;100.00
7966;BME280;4028;43.272;26.932;2023-01-28T01:52:34;98585.75;;;1.71;100.00
7966;BME280;4028;43.272;26.932;2023-01-28T01:55:02;98592.22;;;1.66;100.00
7966;BME280;4028;43.272;26.932;2023-01-28T01:57:31;98586.59;;;1.72;100.00
7966;BME280;4028;43.272;26.932;2023-01-28T01:59:59;98587.19;;;1.63;100.00
7966;BME280;4028;43.272;26.932;2023-01-28T02:02:43;98588.88;;;1.64;100.00
7966;BME280;4028;43.272;26.932;2023-01-28T02:05:12;98594.59;;;1.56;100.00
7966;BME280;4028;43.272;26.932;2023-01-28T02:07:38;98589.78;;;1.50;100.00
7966;BME280;4028;43.272;26.932;2023-01-28T02:10:05;98590.75;;;1.49;100.00
7966;BME280;4028;43.272;26.932;2023-01-28T02:12:40;98595.50;;;1.42;100.00
7966;BME280;4028;43.272;26.932;2023-01-28T02:15:13;98597.41;;;1.53;100.00
7966;BME280;4028;43.272;26.932;2023-01-28T02:17:41;98602.19;;;1.46;100.00
7966;BME280;4028;43.272;26.932;2023-01-28T02:20:08;98602.44;;;1.56;100.00
7966;BME280;4028;43.272;26.932;2023-01-28T02:31:41;98610.53;;;1.51;100.00
7966;BME280;4028;43.272;26.932;2023-01-28T02:36:41;98623.22;;;1.43;100.00
7966;BME280;4028;43.272;26.932;2023-01-28T02:39:21;98624.69;;;1.35;100.00
7966;BME280;4028;43.272;26.932;2023-01-28T02:42:06;98621.94;;;1.23;100.00
7966;BME280;4028;43.272;26.932;2023-01-28T02:44:33;98622.47;;;1.28;100.00
7966;BME280;4028;43.272;26.932;2023-01-28T02:46:59;98628.22;;;1.34;100.00
7966;BME280;4028;43.272;26.932;2023-01-28T02:49:51;98623.84;;;1.34;100.00
7966;BME280;4028;43.272;26.932;2023-01-28T03:03:21;98628.56;;;1.42;100.00
7966;BME280;4028;43.272;26.932;2023-01-28T03:06:02;98640.34;;;1.20;100.00
7966;BME280;4028;43.272;26.932;2023-01-28T03:08:47;98638.59;;;1.21;100.00
7966;BME280;4028;43.272;26.932;2023-01-28T03:11:35;98637.94;;;1.17;100.00
7966;BME280;4028;43.272;26.932;2023-01-28T03:14:23;98634.97;;;1.23;100.00
7966;BME280;4028;43.272;26.932;2023-01-28T03:20:18;98627.31;;;1.20;100.00
7966;BME280;4028;43.272;26.932;2023-01-28T03:23:08;98638.78;;;1.18;100.00
7966;BME280;4028;43.272;26.932;2023-01-28T03:25:56;98638.59;;;1.21;100.00
7966;BME280;4028;43.272;26.932;2023-01-28T03:28:42;98628.06;;;1.22;100.00
7966;BME280;4028;43.272;26.932;2023-01-28T03:31:29;98631.88;;;1.17;100.00
7966;BME280;4028;43.272;26.932;2023-01-28T03:34:14;98615.38;;;1.03;100.00
7966;BME280;4028;43.272;26.932;2023-01-28T03:36:58;98638.03;;;1.16;100.00
7966;BME280;4028;43.272;26.932;2023-01-28T03:39:29;98630.72;;;1.08;100.00
7966;BME280;4028;43.272;26.932;2023-01-28T03:42:14;98620.38;;;1.07;100.00
7966;BME280;4028;43.272;26.932;2023-01-28T03:44:39;98630.03;;;1.19;100.00
7966;BME280;4028;43.272;26.932;2023-01-28T03:47:26;98634.22;;;1.21;100.00
7966;BME280;4028;43.272;26.932;2023-01-28T03:49:53;98619.91;;;1.14;100.00
7966;BME280;4028;43.272;26.932;2023-01-28T03:52:30;98639.81;;;1.15;100.00
7966;BME280;4028;43.272;26.932;2023-01-28T03:54:56;98633.94;;;1.12;100.00
7966;BME280;4028;43.272;26.932;2023-01-28T03:57:24;98639.53;;;1.20;100.00
7966;BME280;4028;43.272;26.932;2023-01-28T03:59:50;98642.97;;;1.20;100.00
7966;BME280;4028;43.272;26.932;2023-01-28T04:02:18;98651.31;;;1.25;100.00
7966;BME280;4028;43.272;26.932;2023-01-28T04:04:44;98656.94;;;1.19;100.00
7966;BME280;4028;43.272;26.932;2023-01-28T04:07:12;98656.72;;;1.22;100.00
7966;BME280;4028;43.272;26.932;2023-01-28T04:09:40;98659.16;;;1.25;100.00
7966;BME280;4028;43.272;26.932;2023-01-28T04:12:07;98663.53;;;1.25;100.00
7966;BME280;4028;43.272;26.932;2023-01-28T04:14:33;98645.84;;;1.16;100.00
7966;BME280;4028;43.272;26.932;2023-01-28T04:16:58;98644.97;;;1.02;100.00
7966;BME280;4028;43.272;26.932;2023-01-28T04:19:25;98660.84;;;1.12;100.00
7966;BME280;4028;43.272;26.932;2023-01-28T04:21:51;98678.75;;;1.04;100.00
7966;BME280;4028;43.272;26.932;2023-01-28T04:24:19;98684.69;;;1.06;100.00
7966;BME280;4028;43.272;26.932;2023-01-28T04:26:45;98687.94;;;0.95;100.00
7966;BME280;4028;43.272;26.932;2023-01-28T04:29:11;98685.16;;;0.98;100.00
7966;BME280;4028;43.272;26.932;2023-01-28T04:31:36;98670.47;;;0.97;100.00
7966;BME280;4028;43.272;26.932;2023-01-28T04:34:02;98688.78;;;0.96;100.00
7966;BME280;4028;43.272;26.932;2023-01-28T04:36:27;98691.13;;;0.86;100.00
7966;BME280;4028;43.272;26.932;2023-01-28T04:38:52;98670.47;;;0.83;100.00
7966;BME280;4028;43.272;26.932;2023-01-28T04:41:18;98687.09;;;1.09;100.00
7966;BME280;4028;43.272;26.932;2023-01-28T04:43:44;98690.66;;;1.08;100.00
7966;BME280;4028;43.272;26.932;2023-01-28T04:46:09;98698.38;;;1.10;100.00
7966;BME280;4028;43.272;26.932;2023-01-28T04:48:35;98706.47;;;1.05;100.00
7966;BME280;4028;43.272;26.932;2023-01-28T04:51:02;98702.84;;;0.93;100.00
7966;BME280;4028;43.272;26.932;2023-01-28T04:53:27;98708.06;;;0.93;100.00
7966;BME280;4028;43.272;26.932;2023-01-28T04:55:53;98712.22;;;0.96;100.00
7966;BME280;4028;43.272;26.932;2023-01-28T04:58:18;98713.25;;;1.08;100.00
7966;BME280;4028;43.272;26.932;2023-01-28T05:00:44;98708.78;;;1.10;100.00
7966;BME280;4028;43.272;26.932;2023-01-28T05:03:09;98717.88;;;1.17;100.00
7966;BME280;4028;43.272;26.932;2023-01-28T05:05:34;98725.91;;;1.14;100.00
7966;BME280;4028;43.272;26.932;2023-01-28T05:08:00;98726.09;;;1.11;100.00
7966;BME280;4028;43.272;26.932;2023-01-28T05:10:26;98720.16;;;1.09;100.00
7966;BME280;4028;43.272;26.932;2023-01-28T05:12:52;98723.31;;;1.14;100.00
7966;BME280;4028;43.272;26.932;2023-01-28T05:15:18;98719.31;;;1.08;100.00
7966;BME280;4028;43.272;26.932;2023-01-28T05:17:44;98712.41;;;1.07;100.00
7966;BME280;4028;43.272;26.932;2023-01-28T05:20:11;98727.56;;;1.15;100.00
7966;BME280;4028;43.272;26.932;2023-01-28T05:22:37;98719.38;;;1.07;100.00
7966;BME280;4028;43.272;26.932;2023-01-28T05:25:04;98721.81;;;0.95;100.00
7966;BME280;4028;43.272;26.932;2023-01-28T05:27:30;98708.06;;;0.79;100.00
7966;BME280;4028;43.272;26.932;2023-01-28T05:29:57;98728.34;;;0.88;100.00
7966;BME280;4028;43.272;26.932;2023-01-28T05:32:23;98742.66;;;0.95;100.00
7966;BME280;4028;43.272;26.932;2023-01-28T05:34:48;98727.59;;;0.86;100.00
7966;BME280;4028;43.272;26.932;2023-01-28T05:37:14;98749.81;;;0.92;100.00
7966;BME280;4028;43.272;26.932;2023-01-28T05:39:39;98741.81;;;0.81;100.00
7966;BME280;4028;43.272;26.932;2023-01-28T05:42:05;98744.97;;;0.86;100.00
7966;BME280;4028;43.272;26.932;2023-01-28T05:44:30;98741.38;;;1.02;100.00
7966;BME280;4028;43.272;26.932;2023-01-28T05:46:55;98754.75;;;0.96;100.00
7966;BME280;4028;43.272;26.932;2023-01-28T05:49:21;98753.47;;;0.89;100.00
7966;BME280;4028;43.272;26.932;2023-01-28T05:51:46;98742.22;;;0.89;100.00
7966;BME280;4028;43.272;26.932;2023-01-28T05:54:13;98777.47;;;0.94;100.00
7966;BME280;4028;43.272;26.932;2023-01-28T05:56:38;98773.91;;;0.95;100.00
7966;BME280;4028;43.272;26.932;2023-01-28T05:59:05;98777.56;;;0.93;100.00
7966;BME280;4028;43.272;26.932;2023-01-28T06:01:31;98780.50;;;0.87;100.00
7966;BME280;4028;43.272;26.932;2023-01-28T06:03:57;98789.75;;;0.92;100.00
7966;BME280;4028;43.272;26.932;2023-01-28T06:06:23;98788.44;;;0.85;100.00
7966;BME280;4028;43.272;26.932;2023-01-28T06:08:48;98797.28;;;0.83;100.00
7966;BME280;4028;43.272;26.932;2023-01-28T06:11:14;98802.00;;;0.90;100.00
7966;BME280;4028;43.272;26.932;2023-01-28T06:13:39;98806.84;;;0.96;100.00
7966;BME280;4028;43.272;26.932;2023-01-28T06:16:07;98807.13;;;0.77;100.00
7966;BME280;4028;43.272;26.932;2023-01-28T06:18:33;98821.84;;;0.93;100.00
7966;BME280;4028;43.272;26.932;2023-01-28T06:20:58;98814.41;;;1.01;100.00
7966;BME280;4028;43.272;26.932;2023-01-28T06:23:24;98821.94;;;1.06;100.00
7966;BME280;4028;43.272;26.932;2023-01-28T06:25:53;98820.38;;;1.03;100.00
7966;BME280;4028;43.272;26.932;2023-01-28T06:28:19;98827.34;;;0.88;100.00
7966;BME280;4028;43.272;26.932;2023-01-28T06:30:47;98831.13;;;0.83;100.00
7966;BME280;4028;43.272;26.932;2023-01-28T06:33:13;98839.91;;;0.66;100.00
7966;BME280;4028;43.272;26.932;2023-01-28T06:35:39;98830.16;;;0.69;100.00
7966;BME280;4028;43.272;26.932;2023-01-28T06:38:04;98847.47;;;0.70;100.00
7966;BME280;4028;43.272;26.932;2023-01-28T06:40:30;98841.63;;;0.67;100.00
7966;BME280;4028;43.272;26.932;2023-01-28T06:42:55;98839.06;;;0.65;100.00
7966;BME280;4028;43.272;26.932;2023-01-28T06:45:21;98853.38;;;0.88;100.00
7966;BME280;4028;43.272;26.932;2023-01-28T06:47:46;98854.03;;;1.06;100.00
7966;BME280;4028;43.272;26.932;2023-01-28T06:50:12;98853.41;;;1.02;100.00
7966;BME280;4028;43.272;26.932;2023-01-28T06:52:38;98857.13;;;0.98;100.00
7966;BME280;4028;43.272;26.932;2023-01-28T06:55:04;98861.03;;;1.06;100.00
7966;BME280;4028;43.272;26.932;2023-01-28T06:57:29;98867.53;;;0.98;100.00
7966;BME280;4028;43.272;26.932;2023-01-28T06:59:55;98869.25;;;1.14;100.00
7966;BME280;4028;43.272;26.932;2023-01-28T07:02:20;98869.50;;;1.09;100.00
7966;BME280;4028;43.272;26.932;2023-01-28T07:04:46;98870.63;;;1.05;100.00
7966;BME280;4028;43.272;26.932;2023-01-28T07:07:11;98871.28;;;1.09;100.00
7966;BME280;4028;43.272;26.932;2023-01-28T07:09:37;98870.81;;;1.16;100.00
7966;BME280;4028;43.272;26.932;2023-01-28T07:12:02;98878.91;;;1.26;100.00
7966;BME280;4028;43.272;26.932;2023-01-28T07:14:30;98884.13;;;1.26;100.00
7966;BME280;4028;43.272;26.932;2023-01-28T07:16:55;98876.03;;;1.30;100.00
7966;BME280;4028;43.272;26.932;2023-01-28T07:19:21;98883.22;;;1.41;100.00
7966;BME280;4028;43.272;26.932;2023-01-28T07:21:46;98891.31;;;1.37;100.00
7966;BME280;4028;43.272;26.932;2023-01-28T07:24:12;98878.81;;;1.13;100.00
7966;BME280;4028;43.272;26.932;2023-01-28T07:26:37;98900.41;;;1.15;100.00
7966;BME280;4028;43.272;26.932;2023-01-28T07:29:02;98888.88;;;1.19;100.00
7966;BME280;4028;43.272;26.932;2023-01-28T07:31:28;98901.81;;;1.21;100.00
7966;BME280;4028;43.272;26.932;2023-01-28T07:33:54;98895.75;;;1.20;100.00
7966;BME280;4028;43.272;26.932;2023-01-28T07:36:19;98898.53;;;1.17;100.00
7966;BME280;4028;43.272;26.932;2023-01-28T07:38:45;98874.88;;;1.06;100.00
7966;BME280;4028;43.272;26.932;2023-01-28T07:41:10;98895.03;;;1.18;100.00
7966;BME280;4028;43.272;26.932;2023-01-28T07:43:36;98899.88;;;1.24;100.00
7966;BME280;4028;43.272;26.932;2023-01-28T07:46:01;98895.31;;;1.28;100.00
7966;BME280;4028;43.272;26.932;2023-01-28T07:48:27;98906.47;;;1.30;100.00
7966;BME280;4028;43.272;26.932;2023-01-28T07:50:52;98911.88;;;1.13;100.00
7966;BME280;4028;43.272;26.932;2023-01-28T07:53:18;98912.22;;;1.07;100.00
7966;BME280;4028;43.272;26.932;2023-01-28T07:55:44;98912.34;;;0.89;100.00
7966;BME280;4028;43.272;26.932;2023-01-28T07:58:11;98919.88;;;0.80;100.00
7966;BME280;4028;43.272;26.932;2023-01-28T08:00:37;98909.31;;;0.67;100.00
7966;BME280;4028;43.272;26.932;2023-01-28T08:03:05;98922.50;;;0.64;100.00
7966;BME280;4028;43.272;26.932;2023-01-28T08:05:46;98917.88;;;0.69;100.00
7966;BME280;4028;43.272;26.932;2023-01-28T08:08:12;98931.31;;;0.77;100.00
7966;BME280;4028;43.272;26.932;2023-01-28T08:10:38;98925.75;;;0.83;100.00
7966;BME280;4028;43.272;26.932;2023-01-28T08:13:04;98925.06;;;0.80;100.00
7966;BME280;4028;43.272;26.932;2023-01-28T08:15:30;98937.78;;;0.70;100.00
7966;BME280;4028;43.272;26.932;2023-01-28T08:17:57;98913.28;;;0.58;100.00
7966;BME280;4028;43.272;26.932;2023-01-28T08:20:24;98927.09;;;0.74;100.00
7966;BME280;4028;43.272;26.932;2023-01-28T08:22:49;98934.09;;;0.58;100.00
7966;BME280;4028;43.272;26.932;2023-01-28T08:25:15;98914.72;;;0.48;100.00
7966;BME280;4028;43.272;26.932;2023-01-28T08:27:40;98941.66;;;0.63;100.00
7966;BME280;4028;43.272;26.932;2023-01-28T08:30:06;98953.16;;;0.74;100.00
7966;BME280;4028;43.272;26.932;2023-01-28T08:32:33;98943.22;;;0.81;100.00
7966;BME280;4028;43.272;26.932;2023-01-28T08:34:59;98925.34;;;0.75;100.00
7966;BME280;4028;43.272;26.932;2023-01-28T08:37:25;98941.78;;;0.75;100.00
7966;BME280;4028;43.272;26.932;2023-01-28T08:39:50;98955.66;;;0.76;100.00
7966;BME280;4028;43.272;26.932;2023-01-28T08:42:16;98954.50;;;0.66;100.00
7966;BME280;4028;43.272;26.932;2023-01-28T08:44:41;98960.31;;;0.55;100.00
7966;BME280;4028;43.272;26.932;2023-01-28T08:47:07;98956.50;;;0.61;100.00
7966;BME280;4028;43.272;26.932;2023-01-28T08:49:32;98950.13;;;0.50;100.00
7966;BME280;4028;43.272;26.932;2023-01-28T08:51:58;98940.00;;;0.62;100.00
7966;BME280;4028;43.272;26.932;2023-01-28T08:54:24;98944.34;;;0.61;100.00
7966;BME280;4028;43.272;26.932;2023-01-28T08:56:50;98936.38;;;0.64;100.00
7966;BME280;4028;43.272;26.932;2023-01-28T08:59:16;98930.41;;;0.62;100.00
7966;BME280;4028;43.272;26.932;2023-01-28T09:01:42;98933.63;;;0.82;100.00
7966;BME280;4028;43.272;26.932;2023-01-28T09:04:07;98939.69;;;0.82;100.00
7966;BME280;4028;43.272;26.932;2023-01-28T09:06:33;98932.72;;;0.83;100.00
7966;BME280;4028;43.272;26.932;2023-01-28T09:08:59;98923.41;;;0.78;100.00
7966;BME280;4028;43.272;26.932;2023-01-28T09:11:26;98928.25;;;0.85;100.00
7966;BME280;4028;43.272;26.932;2023-01-28T09:13:51;98926.69;;;0.96;100.00
7966;BME280;4028;43.272;26.932;2023-01-28T09:16:17;98919.50;;;0.86;100.00
7966;BME280;4028;43.272;26.932;2023-01-28T09:18:42;98926.06;;;0.93;100.00
7966;BME280;4028;43.272;26.932;2023-01-28T09:21:08;98919.13;;;1.08;100.00
7966;BME280;4028;43.272;26.932;2023-01-28T09:23:37;98922.25;;;0.98;100.00
7966;BME280;4028;43.272;26.932;2023-01-28T09:26:03;98919.81;;;0.95;100.00
7966;BME280;4028;43.272;26.932;2023-01-28T09:28:30;98929.03;;;1.01;100.00
7966;BME280;4028;43.272;26.932;2023-01-28T09:31:06;98922.06;;;1.01;100.00
7966;BME280;4028;43.272;26.932;2023-01-28T09:33:34;98938.09;;;1.10;100.00
7966;BME280;4028;43.272;26.932;2023-01-28T09:36:04;98935.38;;;1.11;100.00
7966;BME280;4028;43.272;26.932;2023-01-28T09:38:30;98939.88;;;1.09;100.00
7966;BME280;4028;43.272;26.932;2023-01-28T09:40:57;98931.66;;;1.01;100.00
7966;BME280;4028;43.272;26.932;2023-01-28T09:46:30;98938.47;;;1.03;100.00
7966;BME280;4028;43.272;26.932;2023-01-28T09:48:57;98941.69;;;1.07;100.00
7966;BME280;4028;43.272;26.932;2023-01-28T09:51:31;98943.72;;;1.02;100.00
7966;BME280;4028;43.272;26.932;2023-01-28T09:54:03;98948.88;;;1.03;100.00
7966;BME280;4028;43.272;26.932;2023-01-28T09:56:33;98939.59;;;1.14;100.00
7966;BME280;4028;43.272;26.932;2023-01-28T09:59:19;98933.50;;;1.29;100.00
7966;BME280;4028;43.272;26.932;2023-01-28T10:10:43;98930.19;;;1.11;100.00
7966;BME280;4028;43.272;26.932;2023-01-28T10:13:45;98945.28;;;1.20;100.00
7966;BME280;4028;43.272;26.932;2023-01-28T10:16:49;98925.09;;;1.24;100.00
7966;BME280;4028;43.272;26.932;2023-01-28T10:19:25;98934.84;;;1.20;100.00
7966;BME280;4028;43.272;26.932;2023-01-28T10:22:04;98935.06;;;1.32;100.00
7966;BME280;4028;43.272;26.932;2023-01-28T10:24:37;98934.03;;;1.20;100.00
7966;BME280;4028;43.272;26.932;2023-01-28T10:27:15;98933.84;;;1.23;100.00
7966;BME280;4028;43.272;26.932;2023-01-28T10:29:41;98931.94;;;1.11;100.00
7966;BME280;4028;43.272;26.932;2023-01-28T10:32:20;98935.91;;;1.18;100.00
7966;BME280;4028;43.272;26.932;2023-01-28T10:34:47;98931.91;;;0.96;100.00
7966;BME280;4028;43.272;26.932;2023-01-28T10:37:13;98934.34;;;0.99;100.00
7966;BME280;4028;43.272;26.932;2023-01-28T10:39:40;98941.69;;;1.07;100.00
7966;BME280;4028;43.272;26.932;2023-01-28T10:42:35;98930.84;;;1.15;100.00
7966;BME280;4028;43.272;26.932;2023-01-28T10:45:21;98941.00;;;1.19;100.00
7966;BME280;4028;43.272;26.932;2023-01-28T10:47:53;98935.22;;;1.14;100.00
7966;BME280;4028;43.272;26.932;2023-01-28T10:50:26;98926.75;;;1.11;100.00
7966;BME280;4028;43.272;26.932;2023-01-28T10:53:01;98928.34;;;1.13;100.00
7966;BME280;4028;43.272;26.932;2023-01-28T10:55:30;98925.00;;;1.25;100.00
7966;BME280;4028;43.272;26.932;2023-01-28T10:57:57;98926.59;;;1.28;100.00
7966;BME280;4028;43.272;26.932;2023-01-28T11:00:29;98926.31;;;1.47;100.00
7966;BME280;4028;43.272;26.932;2023-01-28T11:02:56;98918.50;;;1.61;100.00
7966;BME280;4028;43.272;26.932;2023-01-28T11:05:27;98926.63;;;1.56;100.00
7966;BME280;4028;43.272;26.932;2023-01-28T11:08:16;98918.63;;;1.60;100.00
7966;BME280;4028;43.272;26.932;2023-01-28T11:10:43;98920.94;;;1.50;100.00
7966;BME280;4028;43.272;26.932;2023-01-28T11:13:26;98926.69;;;1.41;100.00
7966;BME280;4028;43.272;26.932;2023-01-28T11:18:27;98924.47;;;1.49;100.00
7966;BME280;4028;43.272;26.932;2023-01-28T11:20:56;98918.97;;;1.39;100.00
7966;BME280;4028;43.272;26.932;2023-01-28T11:23:28;98926.81;;;1.39;100.00
7966;BME280;4028;43.272;26.932;2023-01-28T11:26:05;98919.81;;;1.40;100.00
7966;BME280;4028;43.272;26.932;2023-01-28T11:28:32;98924.25;;;1.38;100.00
7966;BME280;4028;43.272;26.932;2023-01-28T11:31:00;98920.34;;;1.30;100.00
7966;BME280;4028;43.272;26.932;2023-01-28T11:33:41;98908.88;;;1.33;100.00
7966;BME280;4028;43.272;26.932;2023-01-28T11:36:13;98921.09;;;1.33;100.00
7966;BME280;4028;43.272;26.932;2023-01-28T11:38:53;98920.19;;;1.34;100.00
7966;BME280;4028;43.272;26.932;2023-01-28T11:43:53;98932.44;;;1.32;100.00
7966;BME280;4028;43.272;26.932;2023-01-28T11:54:14;98923.44;;;1.51;100.00
7966;BME280;4028;43.272;26.932;2023-01-28T11:59:32;98925.09;;;1.38;100.00
7966;BME280;4028;43.272;26.932;2023-01-28T12:02:15;98931.53;;;1.47;100.00
7966;BME280;4028;43.272;26.932;2023-01-28T12:08:02;98932.22;;;1.50;100.00
7966;BME280;4028;43.272;26.932;2023-01-28T12:11:16;98934.44;;;1.56;100.00
7966;BME280;4028;43.272;26.932;2023-01-28T12:13:24;98937.22;;;1.53;100.00
7966;BME280;4028;43.272;26.932;2023-01-28T12:16:16;98937.31;;;1.52;100.00
7966;BME280;4028;43.272;26.932;2023-01-28T12:31:04;98945.06;;;1.68;100.00
7966;BME280;4028;43.272;26.932;2023-01-28T12:36:41;98940.88;;;1.51;100.00
7966;BME280;4028;43.272;26.932;2023-01-28T12:42:37;98922.31;;;1.41;100.00
7966;BME280;4028;43.272;26.932;2023-01-28T12:45:17;98956.94;;;1.43;100.00
7966;BME280;4028;43.272;26.932;2023-01-28T12:47:52;98938.88;;;1.26;100.00
7966;BME280;4028;43.272;26.932;2023-01-28T12:50:26;98962.25;;;1.42;100.00
7966;BME280;4028;43.272;26.932;2023-01-28T12:53:08;98961.72;;;1.51;100.00
7966;BME280;4028;43.272;26.932;2023-01-28T12:55:48;98911.31;;;1.22;100.00
7966;BME280;4028;43.272;26.932;2023-01-28T12:58:19;98970.19;;;1.69;100.00
7966;BME280;4028;43.272;26.932;2023-01-28T13:00:53;98963.25;;;1.69;100.00
7966;BME280;4028;43.272;26.932;2023-01-28T13:03:27;98977.28;;;1.67;100.00
7966;BME280;4028;43.272;26.932;2023-01-28T13:06:02;98983.63;;;1.63;100.00
7966;BME280;4028;43.272;26.932;2023-01-28T13:08:31;98972.91;;;1.67;100.00
7966;BME280;4028;43.272;26.932;2023-01-28T13:10:59;98975.63;;;1.66;100.00
7966;BME280;4028;43.272;26.932;2023-01-28T13:13:30;98971.25;;;1.66;100.00
7966;BME280;4028;43.272;26.932;2023-01-28T13:15:56;98975.06;;;1.75;100.00
7966;BME280;4028;43.272;26.932;2023-01-28T13:24:03;98958.28;;;1.79;100.00
7966;BME280;4028;43.272;26.932;2023-01-28T13:26:41;98984.94;;;1.98;100.00
7966;BME280;4028;43.272;26.932;2023-01-28T13:31:43;98992.03;;;1.96;100.00
7966;BME280;4028;43.272;26.932;2023-01-28T13:34:26;98993.81;;;1.96;100.00
7966;BME280;4028;43.272;26.932;2023-01-28T13:36:55;98997.91;;;2.00;100.00
7966;BME280;4028;43.272;26.932;2023-01-28T13:39:24;99001.91;;;2.05;100.00
7966;BME280;4028;43.272;26.932;2023-01-28T13:42:27;99012.72;;;2.14;100.00
7966;BME280;4028;43.272;26.932;2023-01-28T13:44:53;99017.47;;;2.07;100.00
7966;BME280;4028;43.272;26.932;2023-01-28T13:47:33;99008.81;;;2.06;100.00
7966;BME280;4028;43.272;26.932;2023-01-28T13:50:12;99017.38;;;2.08;100.00
7966;BME280;4028;43.272;26.932;2023-01-28T13:52:58;99013.94;;;2.08;100.00
7966;BME280;4028;43.272;26.932;2023-01-28T13:55:29;99013.63;;;1.98;100.00
7966;BME280;4028;43.272;26.932;2023-01-28T14:06:08;99026.41;;;1.89;100.00
7966;BME280;4028;43.272;26.932;2023-01-28T14:17:43;99021.19;;;1.89;100.00
7966;BME280;4028;43.272;26.932;2023-01-28T14:20:18;99029.84;;;1.89;100.00
7966;BME280;4028;43.272;26.932;2023-01-28T14:22:45;99041.06;;;1.91;100.00
7966;BME280;4028;43.272;26.932;2023-01-28T14:25:14;99034.44;;;2.00;100.00
7966;BME280;4028;43.272;26.932;2023-01-28T14:27:45;99033.88;;;1.95;100.00
7966;BME280;4028;43.272;26.932;2023-01-28T14:30:27;99039.19;;;1.93;100.00
7966;BME280;4028;43.272;26.932;2023-01-28T14:32:57;99050.94;;;1.86;100.00
7966;BME280;4028;43.272;26.932;2023-01-28T14:35:28;99050.28;;;1.97;100.00
7966;BME280;4028;43.272;26.932;2023-01-28T14:37:55;99053.00;;;1.95;100.00
7966;BME280;4028;43.272;26.932;2023-01-28T14:40:22;99040.84;;;1.94;100.00
7966;BME280;4028;43.272;26.932;2023-01-28T14:42:57;99040.13;;;1.92;100.00
7966;BME280;4028;43.272;26.932;2023-01-28T14:58:52;99048.06;;;2.05;100.00
7966;BME280;4028;43.272;26.932;2023-01-28T15:01:22;99051.28;;;1.94;100.00
7966;BME280;4028;43.272;26.932;2023-01-28T15:03:48;99053.72;;;1.97;100.00
7966;BME280;4028;43.272;26.932;2023-01-28T15:06:17;99048.88;;;1.91;100.00
7966;BME280;4028;43.272;26.932;2023-01-28T15:08:45;99043.38;;;1.96;100.00
7966;BME280;4028;43.272;26.932;2023-01-28T15:11:18;99054.00;;;2.07;100.00
7966;BME280;4028;43.272;26.932;2023-01-28T15:13:47;99032.56;;;1.88;100.00
7966;BME280;4028;43.272;26.932;2023-01-28T15:16:22;99051.84;;;1.99;100.00
7966;BME280;4028;43.272;26.932;2023-01-28T15:18:48;99060.53;;;1.86;100.00
7966;BME280;4028;43.272;26.932;2023-01-28T15:21:21;99065.56;;;2.03;100.00